Airfield :
LOGIN :

Register | Disclaimer

   EN    FR    IT 

 










Legend :    VFR   Marginal VFR   IFR   Intensive IFR   Very Intensive IFR
Visi :
Ceiling :
>= 8 km
>= 3000ft
5 to 8 km
1000 to 3000 ft
1500m to 5 km
500 to 1000 ft
800 to 1500m
200 to 500 ft
< 800m
< 200 ft
Symbols :   Thunderstorms  Fog  Heavy snow  Heavy precipitations  Wind > 20 kt
SIGMETs :     Misc.  Thunderstorms  Icing  Turbulence  Mountain Waves  Volcanic Ashes







- Airport Elevation : 1 ft
- Download approach charts


EGCK - Caernarfon

CURRENT METAR :
  • 121150Z 14007G17KT 090V180 9999 BKN028 10/05 Q1016

EXPIRED METARs :
  • 121120Z 16010KT 100V180 9999 SCT026 BKN032 10/06 Q1017
  • 121050Z 14006KT 080V200 9999 SCT029 10/06 Q1017
  • 121020Z 14006KT 090V200 9999 SCT030 BKN036 10/06 Q1017
  • 120950Z 13008KT 070V190 9999 SCT025 BKN032 09/05 Q1017
  • 120920Z 13008KT 090V170 9999 SCT027 09/05 Q1017

TAF TAF EGCK
Valid from the 12 at 12:00 until the 12 at 21:00 UTC


121100Z 1212/1221 15009KT 9999 SCT030
PROB30
TEMPO 1212/1215 6000 -RA BKN012
TEMPO 1214/1221 18018G28KT
No reported NOTAMs for that airfield.



MET'MAP, your aeronautical weather chart ! - Copyright ORBIFLY December 2007 - Disclaimer

ORBIFLY MET'MAP TEAM :

Programming & Development : Alexandra Zaïnal
Concept & Development : Baudouin d'Aumeries
Co-Development & Prog : Marc-Olivier Méhu
Technical & hardware support : Manuel Goepfert

Contact : metmap@orbifly.com




SOURCES & CREDITS :

   NOAA